createdAt,value
2018-04-23T00:00:26.202Z,18.37
2018-04-23T00:02:53.714Z,18.17
2018-04-23T00:05:21.221Z,16.80
2018-04-23T00:07:49.486Z,18.27
2018-04-23T00:10:16.976Z,18.80
2018-04-23T00:12:45.231Z,18.60
2018-04-23T00:15:13.507Z,17.73
2018-04-23T00:17:41.086Z,17.77
2018-04-23T00:20:08.581Z,16.10
2018-04-23T00:22:36.080Z,21.85
2018-04-23T00:25:04.331Z,19.30
2018-04-23T00:27:31.831Z,22.17
2018-04-23T00:29:59.596Z,21.70
2018-04-23T00:32:27.091Z,22.00
2018-04-23T00:34:54.570Z,17.15
2018-04-23T00:37:22.110Z,23.95
2018-04-23T00:39:49.586Z,28.12
2018-04-23T00:42:17.877Z,24.77
2018-04-23T00:44:46.612Z,19.67
2018-04-23T00:47:14.090Z,18.75
2018-04-23T00:49:41.598Z,20.48
2018-04-23T00:52:09.446Z,27.92
2018-04-23T00:54:37.718Z,18.95
2018-04-23T00:57:05.991Z,24.42
2018-04-23T00:59:33.868Z,20.37
2018-04-23T01:02:01.378Z,23.42
2018-04-23T01:04:28.850Z,26.67
2018-04-23T01:06:56.609Z,24.95
2018-04-23T01:09:24.091Z,26.33
2018-04-23T01:11:51.612Z,23.52
2018-04-23T01:14:19.382Z,19.48
2018-04-23T01:16:46.878Z,21.25
2018-04-23T01:19:15.133Z,21.40
2018-04-23T01:21:42.674Z,25.27
2018-04-23T01:24:10.145Z,25.23
2018-04-23T01:26:37.656Z,25.92
2018-04-23T01:29:05.400Z,22.90
2018-04-23T01:31:33.691Z,25.98
2018-04-23T01:34:01.186Z,25.88
2018-04-23T01:36:28.994Z,31.17
2018-04-23T01:38:57.244Z,22.08
2018-04-23T01:41:24.705Z,27.25
2018-04-23T01:43:52.486Z,22.85
2018-04-23T01:46:19.971Z,26.48
2018-04-23T01:48:47.518Z,24.02
2018-04-23T01:51:15.114Z,21.85
2018-04-23T01:53:42.772Z,27.65
2018-04-23T01:56:10.242Z,20.65
2018-04-23T01:58:37.734Z,20.35
2018-04-23T02:01:05.253Z,22.23
2018-04-23T02:03:32.748Z,22.25
2018-04-23T02:06:00.278Z,26.95
2018-04-23T02:08:27.762Z,18.02
2018-04-23T02:10:55.229Z,26.02
2018-04-23T02:13:23.809Z,26.50
2018-04-23T02:15:52.057Z,24.45
2018-04-23T02:18:19.551Z,18.85
2018-04-23T02:20:48.081Z,12.50
2018-04-23T02:23:15.583Z,13.75
2018-04-23T02:25:43.826Z,7.97
2018-04-23T02:28:11.790Z,7.22
2018-04-23T02:30:39.257Z,8.82
2018-04-23T02:33:06.733Z,11.57
2018-04-23T02:35:34.986Z,7.70
2018-04-23T02:38:03.233Z,9.52
2018-04-23T02:40:30.718Z,7.68
2018-04-23T02:42:58.609Z,6.15
2018-04-23T02:45:26.868Z,7.75
2018-04-23T02:47:54.346Z,7.68
2018-04-23T02:50:22.646Z,11.95
2018-04-23T02:52:50.128Z,7.22
2018-04-23T02:55:17.598Z,9.02
2018-04-23T02:57:45.601Z,9.10
2018-04-23T03:00:13.878Z,9.68
2018-04-23T03:02:42.225Z,7.87
2018-04-23T03:05:10.025Z,7.72
2018-04-23T03:07:38.290Z,6.72
2018-04-23T03:10:05.765Z,9.95
2018-04-23T03:12:33.275Z,8.63
2018-04-23T03:15:00.745Z,7.05
2018-04-23T03:17:28.222Z,8.85
2018-04-23T03:19:56.811Z,6.30
2018-04-23T03:22:25.520Z,6.60
2018-04-23T03:24:53.010Z,7.07
2018-04-23T03:27:20.818Z,6.55
2018-04-23T03:29:49.070Z,6.60
2018-04-23T03:32:16.581Z,9.30
2018-04-23T03:34:44.090Z,7.10
2018-04-23T03:37:11.619Z,10.63
2018-04-23T03:39:39.169Z,7.45
2018-04-23T03:42:06.986Z,9.50
2018-04-23T03:44:35.229Z,8.15
2018-04-23T03:47:02.702Z,10.55
2018-04-23T03:49:30.514Z,9.38
2018-04-23T03:51:58.006Z,11.45
2018-04-23T03:54:25.475Z,10.25
2018-04-23T03:56:53.267Z,14.07
2018-04-23T03:59:21.506Z,9.82
2018-04-23T04:01:48.970Z,8.45
2018-04-23T04:04:16.767Z,8.82
2018-04-23T04:06:45.005Z,12.07
2018-04-23T04:09:13.238Z,8.52
2018-04-23T04:11:40.749Z,10.15
2018-04-23T04:14:20.119Z,9.40
2018-04-23T04:16:55.402Z,8.82
2018-04-23T04:19:22.877Z,10.95
2018-04-23T04:21:50.363Z,8.23
2018-04-23T04:24:18.965Z,9.90
2018-04-23T04:26:46.436Z,13.30
2018-04-23T04:29:13.918Z,8.25
2018-04-23T04:31:41.723Z,11.00
2018-04-23T04:34:10.106Z,11.93
2018-04-23T04:36:38.341Z,9.93
2018-04-23T04:39:06.097Z,8.18
2018-04-23T04:41:33.613Z,9.15
2018-04-23T04:44:01.160Z,15.82
2018-04-23T04:46:28.951Z,10.60
2018-04-23T04:48:56.420Z,10.68
2018-04-23T04:51:23.955Z,8.90
2018-04-23T04:53:51.707Z,10.48
2018-04-23T04:56:19.933Z,9.60
2018-04-23T04:58:47.410Z,12.98
2018-04-23T05:01:14.930Z,15.18
2018-04-23T05:03:42.402Z,9.85
2018-04-23T05:06:09.874Z,11.88
2018-04-23T05:08:37.720Z,10.55
2018-04-23T05:11:05.198Z,12.00
2018-04-23T05:13:32.694Z,8.40
2018-04-23T05:16:00.474Z,12.20
2018-04-23T05:18:27.942Z,9.88
2018-04-23T05:20:55.422Z,10.77
2018-04-23T05:23:23.194Z,7.50
2018-04-23T05:25:50.678Z,12.52
2018-04-23T05:28:18.926Z,8.55
2018-04-23T05:30:46.415Z,9.05
2018-04-23T05:33:13.898Z,12.13
2018-04-23T05:35:41.378Z,10.60
2018-04-23T05:38:08.858Z,9.43
2018-04-23T05:40:36.344Z,9.48
2018-04-23T05:43:03.826Z,7.65
2018-04-23T05:45:31.661Z,9.88
2018-04-23T05:47:59.891Z,7.22
2018-04-23T05:50:27.424Z,8.68
2018-04-23T05:52:55.253Z,11.27
2018-04-23T05:55:22.726Z,11.30
2018-04-23T05:57:50.980Z,7.87
2018-04-23T06:00:18.863Z,8.73
2018-04-23T06:02:47.092Z,8.20
2018-04-23T06:05:14.589Z,9.13
2018-04-23T06:07:43.122Z,6.10
2018-04-23T06:10:11.366Z,7.07
2018-04-23T06:12:38.850Z,11.40
2018-04-23T06:15:06.597Z,8.57
2018-04-23T06:17:34.074Z,9.73
2018-04-23T06:20:01.591Z,9.50
2018-04-23T06:22:30.165Z,10.33
2018-04-23T06:24:57.622Z,7.20
2018-04-23T06:27:25.870Z,7.07
2018-04-23T06:29:53.818Z,9.07
2018-04-23T06:32:21.324Z,8.70
2018-04-23T06:34:49.587Z,6.47
2018-04-23T06:37:17.104Z,6.30
2018-04-23T06:39:44.586Z,9.43
2018-04-23T06:42:12.090Z,6.37
2018-04-23T06:44:39.876Z,7.37
2018-04-23T06:47:07.399Z,7.77
2018-04-23T06:49:35.688Z,6.77
2018-04-23T06:52:03.532Z,8.63
2018-04-23T06:54:30.990Z,6.77
2018-04-23T06:56:59.225Z,7.93
2018-04-23T06:59:27.027Z,7.03
2018-04-23T07:01:54.486Z,8.07
2018-04-23T07:04:22.733Z,8.47
2018-04-23T07:06:50.458Z,8.00
2018-04-23T07:09:17.942Z,7.20
2018-04-23T07:11:45.406Z,6.13
2018-04-23T07:14:13.208Z,6.00
2018-04-23T07:16:41.507Z,4.53
2018-04-23T07:19:08.974Z,5.77
2018-04-23T07:21:36.450Z,8.07
2018-04-23T07:24:03.934Z,7.77
2018-04-23T07:26:31.430Z,5.80
2018-04-23T07:28:59.191Z,6.13
2018-04-23T07:31:26.673Z,5.30
2018-04-23T07:33:54.163Z,4.80
2018-04-23T07:36:21.998Z,5.37
2018-04-23T07:38:49.474Z,5.53
2018-04-23T07:41:16.969Z,7.17
2018-04-23T07:43:44.587Z,3.00
2018-04-23T07:46:12.055Z,5.90
2018-04-23T07:48:39.546Z,4.33
2018-04-23T07:51:08.100Z,6.87
2018-04-23T07:53:35.731Z,3.97
2018-04-23T07:56:03.239Z,3.30
2018-04-23T07:58:31.841Z,3.43
2018-04-23T08:00:59.322Z,3.57
2018-04-23T08:03:26.948Z,4.53
2018-04-23T08:05:54.845Z,6.33
2018-04-23T08:08:22.411Z,3.70
2018-04-23T08:10:49.953Z,2.47
2018-04-23T08:13:18.604Z,3.17
2018-04-23T08:15:46.086Z,2.10
2018-04-23T08:18:13.568Z,4.97
2018-04-23T08:20:41.399Z,5.87
2018-04-23T08:23:09.635Z,2.43
2018-04-23T08:25:37.130Z,3.60
2018-04-23T08:28:05.698Z,2.10
2018-04-23T08:30:33.204Z,2.77
2018-04-23T08:33:00.698Z,4.10
2018-04-23T08:35:28.630Z,3.27
2018-04-23T08:37:56.122Z,4.23
2018-04-23T08:40:23.606Z,5.27
2018-04-23T08:42:52.137Z,5.00
2018-04-23T08:45:19.618Z,5.00
2018-04-23T08:47:47.113Z,4.90
2018-04-23T08:50:15.686Z,5.27
2018-04-23T08:52:43.937Z,3.50
2018-04-23T08:55:11.418Z,6.63
2018-04-23T08:57:40.003Z,4.10
2018-04-23T09:00:07.511Z,6.20
2018-04-23T09:02:35.019Z,5.43
2018-04-23T09:05:03.083Z,5.87
2018-04-23T09:07:38.147Z,5.30
2018-04-23T09:10:05.658Z,5.60
2018-04-23T09:12:33.134Z,3.97
2018-04-23T09:15:01.415Z,3.70
2018-04-23T09:17:29.660Z,3.63
2018-04-23T09:19:57.159Z,5.90
2018-04-23T09:22:25.412Z,3.77
2018-04-23T09:24:54.031Z,6.30
2018-04-23T09:27:21.526Z,5.50
2018-04-23T09:29:48.995Z,4.47
2018-04-23T09:32:16.518Z,4.63
2018-04-23T09:34:43.998Z,3.80
2018-04-23T09:37:11.466Z,3.17
2018-04-23T09:39:39.241Z,6.40
2018-04-23T09:42:06.714Z,6.00
2018-04-23T09:44:36.319Z,5.83
2018-04-23T09:47:04.787Z,5.70
2018-04-23T09:49:33.073Z,5.73
2018-04-23T09:52:01.314Z,4.70
2018-04-23T09:54:29.133Z,5.53
2018-04-23T09:56:56.592Z,7.20
2018-04-23T09:59:24.101Z,5.50
2018-04-23T10:01:51.895Z,3.93
2018-04-23T10:04:20.940Z,7.13
2018-04-23T10:06:48.429Z,4.10
2018-04-23T10:09:15.952Z,3.87
2018-04-23T10:11:43.424Z,3.53
2018-04-23T10:14:10.953Z,4.63
2018-04-23T10:16:38.703Z,4.63
2018-04-23T10:19:08.578Z,4.90
2018-04-23T10:21:36.051Z,5.50
2018-04-23T10:24:04.624Z,6.73
2018-04-23T10:26:32.106Z,6.80
2018-04-23T10:28:59.586Z,4.00
2018-04-23T10:31:27.409Z,5.13
2018-04-23T10:33:54.891Z,4.93
2018-04-23T10:36:22.367Z,5.63
2018-04-23T10:38:50.182Z,4.13
2018-04-23T10:41:19.161Z,4.77
2018-04-23T10:43:46.626Z,7.33
2018-04-23T10:46:14.143Z,4.50
2018-04-23T10:48:41.666Z,6.27
2018-04-23T10:51:09.182Z,8.43
2018-04-23T10:53:36.662Z,4.83
2018-04-23T10:56:04.134Z,4.50
2018-04-23T10:58:32.372Z,5.40
2018-04-23T11:01:00.277Z,5.80
2018-04-23T11:03:27.851Z,5.67
2018-04-23T11:05:55.402Z,6.03
2018-04-23T11:08:23.219Z,4.83
2018-04-23T11:10:50.698Z,9.87
2018-04-23T11:13:18.943Z,7.30
2018-04-23T11:15:46.571Z,4.13
2018-04-23T11:18:14.030Z,6.60
2018-04-23T11:20:41.518Z,7.67
2018-04-23T11:23:09.411Z,7.23
2018-04-23T11:25:36.891Z,5.13
2018-04-23T11:28:05.138Z,6.80
2018-04-23T11:30:33.014Z,7.07
2018-04-23T11:33:01.287Z,9.20
2018-04-23T11:35:28.753Z,11.73
2018-04-23T11:37:57.430Z,5.97
2018-04-23T11:40:24.989Z,5.93
2018-04-23T11:42:52.474Z,9.10
2018-04-23T11:45:20.316Z,5.20
2018-04-23T11:47:47.795Z,6.57
2018-04-23T11:50:15.323Z,3.63
2018-04-23T11:52:43.095Z,6.37
2018-04-23T11:55:11.350Z,5.13
2018-04-23T11:57:39.617Z,3.50
2018-04-23T12:00:07.107Z,6.87
2018-04-23T12:02:35.375Z,6.10
2018-04-23T12:05:03.912Z,5.77
2018-04-23T12:07:31.410Z,5.73
2018-04-23T12:09:58.889Z,4.00
2018-04-23T12:12:27.197Z,3.90
2018-04-23T12:14:54.674Z,1.83
2018-04-23T12:17:22.144Z,1.93
2018-04-23T12:19:49.926Z,4.07
2018-04-23T12:22:17.439Z,3.70
2018-04-23T12:24:44.914Z,2.93
2018-04-23T12:27:12.811Z,3.20
2018-04-23T12:29:40.312Z,3.70
2018-04-23T12:32:07.779Z,4.53
2018-04-23T12:34:35.590Z,3.40
2018-04-23T12:37:03.829Z,5.73
2018-04-23T12:39:31.343Z,3.17
2018-04-23T12:41:59.204Z,3.40
2018-04-23T12:44:26.687Z,5.03
2018-04-23T12:46:54.183Z,2.77
2018-04-23T12:49:21.951Z,3.63
2018-04-23T12:51:49.423Z,6.80
2018-04-23T12:54:17.860Z,4.70
2018-04-23T12:56:45.666Z,3.90
2018-04-23T12:59:13.581Z,5.40
2018-04-23T13:01:41.049Z,8.13
2018-04-23T13:04:08.538Z,3.47
2018-04-23T13:06:36.010Z,3.10
2018-04-23T13:09:04.275Z,7.00
2018-04-23T13:11:33.344Z,5.63
2018-04-23T13:14:01.618Z,2.73
2018-04-23T13:16:29.098Z,3.60
2018-04-23T13:18:56.870Z,5.37
2018-04-23T13:21:25.219Z,4.67
2018-04-23T13:23:52.750Z,4.97
2018-04-23T13:26:20.255Z,4.67
2018-04-23T13:28:47.875Z,3.20
2018-04-23T13:31:15.362Z,3.63
2018-04-23T13:33:43.148Z,5.17
2018-04-23T13:36:11.447Z,4.60
2018-04-23T13:38:39.098Z,2.27
2018-04-23T13:41:07.667Z,2.73
2018-04-23T13:43:42.543Z,3.13
2018-04-23T13:46:10.966Z,3.10
2018-04-23T13:48:38.473Z,2.90
2018-04-23T13:51:06.029Z,4.30
2018-04-23T13:53:33.530Z,3.60
2018-04-23T13:56:00.997Z,8.30
2018-04-23T13:58:28.918Z,3.43
2018-04-23T14:00:56.397Z,3.30
2018-04-23T14:03:23.856Z,3.50
2018-04-23T14:05:51.398Z,2.87
2018-04-23T14:08:19.203Z,1.90
2018-04-23T14:10:47.499Z,1.27
2018-04-23T14:13:14.986Z,2.30
2018-04-23T14:15:42.803Z,3.27
2018-04-23T14:18:10.313Z,2.83
2018-04-23T14:20:37.770Z,5.00
2018-04-23T14:23:05.267Z,2.57
2018-04-23T14:25:32.746Z,2.60
2018-04-23T14:28:00.987Z,4.00
2018-04-23T14:30:28.775Z,3.33
2018-04-23T14:32:57.003Z,3.30
2018-04-23T14:35:24.556Z,4.30
2018-04-23T14:37:52.381Z,5.13
2018-04-23T14:40:20.610Z,3.30
2018-04-23T14:42:48.111Z,3.53
2018-04-23T14:45:16.653Z,1.80
2018-04-23T14:47:45.010Z,4.50
2018-04-23T14:50:12.481Z,4.23
2018-04-23T14:52:40.318Z,2.43
2018-04-23T14:55:07.810Z,3.97
2018-04-23T14:57:35.300Z,4.30
2018-04-23T15:00:03.075Z,2.53
2018-04-23T15:02:31.306Z,3.10
2018-04-23T15:04:58.753Z,4.73
2018-04-23T15:07:26.242Z,3.73
2018-04-23T15:09:53.890Z,2.57
2018-04-23T15:12:21.635Z,5.27
2018-04-23T15:14:49.264Z,3.83
2018-04-23T15:17:17.006Z,1.87
2018-04-23T15:19:45.404Z,2.30
2018-04-23T15:22:13.379Z,2.30
2018-04-23T15:24:40.980Z,2.67
2018-04-23T15:27:08.598Z,5.50
2018-04-23T15:29:36.432Z,1.63
2018-04-23T15:32:04.667Z,3.67
2018-04-23T15:34:32.126Z,2.73
2018-04-23T15:37:00.019Z,2.40
2018-04-23T15:39:28.467Z,2.47
2018-04-23T15:41:55.942Z,1.70
2018-04-23T15:44:23.832Z,1.87
2018-04-23T15:46:51.339Z,1.30
2018-04-23T15:49:19.942Z,6.50
2018-04-23T15:51:47.744Z,2.70
2018-04-23T15:54:16.060Z,2.20
2018-04-23T15:56:43.518Z,1.80
2018-04-23T15:59:12.433Z,2.00
2018-04-23T16:01:39.902Z,1.63
2018-04-23T16:04:07.374Z,0.73
2018-04-23T16:06:35.916Z,3.70
2018-04-23T16:09:03.385Z,0.93
2018-04-23T16:11:30.861Z,1.70
2018-04-23T16:13:58.631Z,1.57
2018-04-23T16:16:26.885Z,0.90
2018-04-23T16:18:54.366Z,1.90
2018-04-23T16:21:22.502Z,0.93
2018-04-23T16:23:49.977Z,1.80
2018-04-23T16:26:17.517Z,1.20
2018-04-23T16:28:45.086Z,2.50
2018-04-23T16:31:12.559Z,2.00
2018-04-23T16:33:40.814Z,1.17
2018-04-23T16:36:09.342Z,2.10
2018-04-23T16:38:37.602Z,2.50
2018-04-23T16:41:05.856Z,3.00
2018-04-23T16:43:34.047Z,2.93
2018-04-23T16:46:01.938Z,3.07
2018-04-23T16:48:29.428Z,2.40
2018-04-23T16:50:57.249Z,1.67
2018-04-23T16:53:24.844Z,1.10
2018-04-23T16:55:52.310Z,1.67
2018-04-23T16:58:20.099Z,4.93
2018-04-23T17:00:47.578Z,1.87
2018-04-23T17:03:15.898Z,2.12
2018-04-23T17:05:43.385Z,1.83
2018-04-23T17:08:10.880Z,3.70
2018-04-23T17:10:38.368Z,1.90
2018-04-23T17:13:05.883Z,2.37
2018-04-23T17:15:34.148Z,4.77
2018-04-23T17:18:02.414Z,1.65
2018-04-23T17:20:29.939Z,2.57
2018-04-23T17:22:57.448Z,1.13
2018-04-23T17:25:25.720Z,2.17
2018-04-23T17:27:53.227Z,2.20
2018-04-23T17:30:20.718Z,2.90
2018-04-23T17:32:48.231Z,3.72
2018-04-23T17:35:15.994Z,3.10
2018-04-23T17:37:43.492Z,5.15
2018-04-23T17:40:10.989Z,2.50
2018-04-23T17:42:38.855Z,2.53
2018-04-23T17:45:07.119Z,2.40
2018-04-23T17:47:34.619Z,1.60
2018-04-23T17:50:02.087Z,2.72
2018-04-23T17:52:29.549Z,2.12
2018-04-23T17:54:57.298Z,5.40
2018-04-23T17:57:25.123Z,3.37
2018-04-23T17:59:53.363Z,3.08
2018-04-23T18:02:21.542Z,3.05
2018-04-23T18:04:49.472Z,3.80
2018-04-23T18:07:16.943Z,3.53
2018-04-23T18:09:44.426Z,5.53
2018-04-23T18:12:12.282Z,4.12
2018-04-23T18:14:42.178Z,2.03
2018-04-23T18:17:09.655Z,2.10
2018-04-23T18:19:37.552Z,4.25
2018-04-23T18:22:06.131Z,5.53
2018-04-23T18:24:34.371Z,3.70
2018-04-23T18:27:02.180Z,2.80
2018-04-23T18:29:30.407Z,6.20
2018-04-23T18:31:57.905Z,5.25
2018-04-23T18:34:25.686Z,3.75
2018-04-23T18:36:53.225Z,7.72
2018-04-23T18:39:21.750Z,8.05
2018-04-23T18:41:49.619Z,8.15
2018-04-23T18:44:17.112Z,4.18
2018-04-23T18:46:44.614Z,3.60
2018-04-23T18:49:12.451Z,7.90
2018-04-23T18:51:39.925Z,5.82
2018-04-23T18:54:08.166Z,7.28
2018-04-23T18:56:35.934Z,6.10
2018-04-23T18:59:03.427Z,14.38
2018-04-23T19:01:30.924Z,3.25
2018-04-23T19:03:58.409Z,4.72
2018-04-23T19:06:26.654Z,2.00
2018-04-23T19:08:54.201Z,8.98
2018-04-23T19:11:21.950Z,4.40
2018-04-23T19:13:49.431Z,5.18
2018-04-23T19:16:16.909Z,3.15
2018-04-23T19:18:44.407Z,4.93
2018-04-23T19:21:12.630Z,4.62
2018-04-23T19:23:40.124Z,3.50
2018-04-23T19:26:07.594Z,2.03
2018-04-23T19:28:35.862Z,5.95
2018-04-23T19:31:04.117Z,4.25
2018-04-23T19:33:31.601Z,2.35
2018-04-23T19:35:59.863Z,2.80
2018-04-23T19:38:27.329Z,5.40
2018-04-23T19:40:55.576Z,6.05
2018-04-23T19:43:23.054Z,12.32
2018-04-23T19:45:51.286Z,5.20
2018-04-23T19:48:19.197Z,3.40
2018-04-23T19:50:47.437Z,5.93
2018-04-23T19:53:14.922Z,3.75
2018-04-23T19:55:42.818Z,5.80
2018-04-23T19:58:10.307Z,4.50
2018-04-23T20:00:37.807Z,8.43
2018-04-23T20:03:05.677Z,4.03
2018-04-23T20:05:33.950Z,4.93
2018-04-23T20:08:02.220Z,6.03
2018-04-23T20:10:30.095Z,7.90
2018-04-23T20:12:58.330Z,6.28
2018-04-23T20:15:25.794Z,7.72
2018-04-23T20:17:53.305Z,5.25
2018-04-23T20:20:20.795Z,6.45
2018-04-23T20:22:48.246Z,4.22
2018-04-23T20:25:15.988Z,5.82
2018-04-23T20:27:43.511Z,6.30
2018-04-23T20:30:10.982Z,11.95
2018-04-23T20:32:39.222Z,8.45
2018-04-23T20:35:06.686Z,7.68
2018-04-23T20:37:34.162Z,6.82
2018-04-23T20:40:02.407Z,7.65
2018-04-23T20:42:29.888Z,6.05
2018-04-23T20:44:57.370Z,9.50
2018-04-23T20:47:25.976Z,8.00
2018-04-23T20:49:53.449Z,7.62
2018-04-23T20:52:20.924Z,6.95
2018-04-23T20:54:48.726Z,10.85
2018-04-23T20:57:17.667Z,9.48
2018-04-23T20:59:45.140Z,7.05
2018-04-23T21:02:12.647Z,7.57
2018-04-23T21:04:40.191Z,8.07
2018-04-23T21:07:07.721Z,7.78
2018-04-23T21:09:35.561Z,5.20
2018-04-23T21:12:03.063Z,8.18
2018-04-23T21:14:31.301Z,7.85
2018-04-23T21:16:59.225Z,8.75
2018-04-23T21:19:26.670Z,7.07
2018-04-23T21:21:54.940Z,6.35
2018-04-23T21:24:22.710Z,8.32
2018-04-23T21:26:50.938Z,9.70
2018-04-23T21:29:18.434Z,4.60
2018-04-23T21:31:45.938Z,8.43
2018-04-23T21:34:13.406Z,2.72
2018-04-23T21:36:40.885Z,3.75
2018-04-23T21:39:08.709Z,5.10
2018-04-23T21:41:36.180Z,7.55
2018-04-23T21:44:03.660Z,6.25
2018-04-23T21:46:31.443Z,4.72
2018-04-23T21:48:59.687Z,10.85
2018-04-23T21:51:27.159Z,9.32
2018-04-23T21:53:54.645Z,6.07
2018-04-23T21:56:22.917Z,5.70
2018-04-23T21:58:51.239Z,4.10
2018-04-23T22:01:18.740Z,6.45
2018-04-23T22:03:46.207Z,9.80
2018-04-23T22:06:15.150Z,5.97
2018-04-23T22:08:42.953Z,5.97
2018-04-23T22:11:10.970Z,5.45
2018-04-23T22:13:38.683Z,4.25
2018-04-23T22:16:06.938Z,8.45
2018-04-23T22:18:34.422Z,5.93
2018-04-23T22:21:02.654Z,4.47
2018-04-23T22:23:30.141Z,11.35
2018-04-23T22:25:57.602Z,4.20
2018-04-23T22:28:25.066Z,7.20
2018-04-23T22:44:02.727Z,11.40
2018-04-23T22:46:30.202Z,8.80
2018-04-23T22:48:57.694Z,8.60
2018-04-23T22:51:25.185Z,7.25
2018-04-23T22:53:52.820Z,4.35
2018-04-23T22:56:20.382Z,7.20
2018-04-23T22:58:47.971Z,6.80
2018-04-23T23:01:15.434Z,4.90
2018-04-23T23:03:43.034Z,7.45
2018-04-23T23:06:10.877Z,4.82
2018-04-23T23:08:39.118Z,6.00
2018-04-23T23:11:06.763Z,5.53
2018-04-23T23:13:34.622Z,6.72
2018-04-23T23:16:02.184Z,6.37
2018-04-23T23:18:29.666Z,8.95
2018-04-23T23:20:57.517Z,7.03
2018-04-23T23:23:25.004Z,4.05
2018-04-23T23:25:53.309Z,8.68
2018-04-23T23:28:21.880Z,7.95
2018-04-23T23:30:50.124Z,8.38
2018-04-23T23:33:17.596Z,7.37
2018-04-23T23:35:45.374Z,7.07
2018-04-23T23:38:13.646Z,4.78
2018-04-23T23:40:41.115Z,9.25
2018-04-23T23:43:08.624Z,6.68
2018-04-23T23:45:36.094Z,7.25
2018-04-23T23:48:04.322Z,8.68
2018-04-23T23:50:32.069Z,7.87
2018-04-23T23:53:00.324Z,6.78
2018-04-23T23:55:27.834Z,6.60
2018-04-23T23:57:55.584Z,9.85
